EGFF/CWL METAR and TAF weather

Enter ICAO airport designator
Station Type Date Time Source
EGFF METAR 2020/12/01 21:20 UTC NOAA

EGFF 012120Z AUTO 35004KT 9999 BKN036 07/04 Q1027


Station Type Date Time Source
EGFF Decoded METAR 2020/12/01 21:20 UTC NOAA

Cardiff-Wales Airport, United Kingdom (EGFF) 51-24N 003-21W 0M
Dec 01, 2020 - 04:20 PM EST / 2020.12.01 2120 UTC
Wind: from the N (350 degrees) at 5 MPH (4 KT):0
Visibility: greater than 7 mile(s):0
Sky conditions: mostly cloudy
Temperature: 44 F (7 C)
Dew Point: 39 F (4 C)
Relative Humidity: 81%
Pressure (altimeter): 30.33 in. Hg (1027 hPa)
ob: EGFF 012120Z AUTO 35004KT 9999 BKN036 07/04 Q1027
cycle: 21

Station Type Date Time Source
EGFF TAF 2020/12/01 21:37 UTC NOAA

TAF
AMD EGFF 012131Z 0121/0218 34006KT 9999 SCT035 PROB30
TEMPO 0201/0206 6000 BKN014
BECMG 0206/0209 28012KT BKN014 PROB30
TEMPO 0206/0212 8000 -RA BKN009
BECMG 0211/0214 FEW028

Example: see airport list